Rossville, Tennessee
Current Conditions -  °F | °C
As of 4:15 AM on Tuesday 21 Oct 2014 (Local Time) from KOLV Reporting Station
Clear Clear  
Wind Chill: 54°   Ceiling: Unl
Heat Index: 54°   Visibility: 10mi
Dew Point: 54°   Wind: 0mph
Humidity: 100%   Direction: NA
Pressure: 30.03"   Gusts: NA
Location:  35.05°N, 89.54°W
Report Text: KOLV 210915Z AUTO 00000KT 10SM CLR 12/12 A3003 RMK A01 P000
Loading
Personal Weather Stations






























Interactive Weather Map
Tropical Storm Tracking
New forecast layout! Learn more

10-Day Weather Forecast

Advertisements
Track Severe Weather on mobile